KLTS/LTS METAR and TAF weather

Enter ICAO airport designator
Station Type Date Time Source
KLTS METAR 2020/11/27 13:56 UTC NOAA

KLTS 271356Z AUTO 02010KT 10SM CLR 04/ A3020 RMK AO2 SLP232 $


Station Type Date Time Source
KLTS Decoded METAR 2020/11/27 13:56 UTC NOAA

Altus Air Force Base, OK, United States (KLTS) 34-39N 099-16W 420M
Nov 27, 2020 - 08:56 AM EST / 2020.11.27 1356 UTC
Wind: from the NNE (020 degrees) at 12 MPH (10 KT):0
Visibility: 10 mile(s):0
Sky conditions: clear
Temperature: 39 F (4 C)
Pressure (altimeter): 30.2 in. Hg (1022 hPa)
ob: KLTS 271356Z AUTO 02010KT 10SM CLR 04/ A3020 RMK AO2 SLP232
cycle: 14

Station Type Date Time Source
KLTS TAF 2020/11/25 23:25 UTC NOAA

TAF
AMD KLTS 252300Z 2523/2623 17006KT 9999 SKC QNH2997INS
BECMG 2602/2603 16008KT 9999 SKC QNH2987INS TX23/2523Z TN03/2612Z LAST NO
AMDS AFT 2523 NEXT 3009

Example: see airport list